sensor_id;sensor_type;location;lat;lon;timestamp;temperature;humidity
48898;DHT22;34713;50.038;20.000;2022-10-22T00:00:16;13.50;62.02
48898;DHT22;34713;50.038;20.000;2022-10-22T00:02:44;13.47;62.03
48898;DHT22;34713;50.038;20.000;2022-10-22T00:05:10;13.46;62.02
48898;DHT22;34713;50.038;20.000;2022-10-22T00:07:36;13.46;62.00
48898;DHT22;34713;50.038;20.000;2022-10-22T00:10:04;13.47;61.99
48898;DHT22;34713;50.038;20.000;2022-10-22T00:12:30;13.46;62.04
48898;DHT22;34713;50.038;20.000;2022-10-22T00:14:57;13.46;62.05
48898;DHT22;34713;50.038;20.000;2022-10-22T00:17:22;13.45;62.13
48898;DHT22;34713;50.038;20.000;2022-10-22T00:19:48;13.45;62.11
48898;DHT22;34713;50.038;20.000;2022-10-22T00:22:14;13.43;62.08
48898;DHT22;34713;50.038;20.000;2022-10-22T00:24:40;13.43;62.00
48898;DHT22;34713;50.038;20.000;2022-10-22T00:27:09;13.46;61.96
48898;DHT22;34713;50.038;20.000;2022-10-22T00:29:35;13.43;61.92
48898;DHT22;34713;50.038;20.000;2022-10-22T00:32:02;13.46;61.83
48898;DHT22;34713;50.038;20.000;2022-10-22T00:34:28;13.47;61.78
48898;DHT22;34713;50.038;20.000;2022-10-22T00:36:54;13.47;61.69
48898;DHT22;34713;50.038;20.000;2022-10-22T00:39:23;13.49;61.61
48898;DHT22;34713;50.038;20.000;2022-10-22T00:41:51;13.49;61.55
48898;DHT22;34713;50.038;20.000;2022-10-22T00:47:28;13.50;61.47
48898;DHT22;34713;50.038;20.000;2022-10-22T00:49:55;13.49;61.40
48898;DHT22;34713;50.038;20.000;2022-10-22T00:52:22;13.52;61.37
48898;DHT22;34713;50.038;20.000;2022-10-22T00:54:48;13.53;61.32
48898;DHT22;34713;50.038;20.000;2022-10-22T00:57:15;13.52;61.26
48898;DHT22;34713;50.038;20.000;2022-10-22T00:59:42;13.54;61.24
48898;DHT22;34713;50.038;20.000;2022-10-22T01:02:08;13.53;61.22
48898;DHT22;34713;50.038;20.000;2022-10-22T01:04:34;13.53;61.15
48898;DHT22;34713;50.038;20.000;2022-10-22T01:06:59;13.56;61.09
48898;DHT22;34713;50.038;20.000;2022-10-22T01:09:47;13.54;61.04
48898;DHT22;34713;50.038;20.000;2022-10-22T01:12:41;13.56;60.96
48898;DHT22;34713;50.038;20.000;2022-10-22T01:15:25;13.54;60.94
48898;DHT22;34713;50.038;20.000;2022-10-22T01:18:10;13.56;60.96
48898;DHT22;34713;50.038;20.000;2022-10-22T01:21:01;13.54;61.05
48898;DHT22;34713;50.038;20.000;2022-10-22T01:26:54;13.47;61.19
48898;DHT22;34713;50.038;20.000;2022-10-22T01:29:29;13.43;61.21
48898;DHT22;34713;50.038;20.000;2022-10-22T01:32:00;13.45;61.26
48898;DHT22;34713;50.038;20.000;2022-10-22T01:34:28;13.38;61.37
48898;DHT22;34713;50.038;20.000;2022-10-22T01:36:56;13.35;61.45
48898;DHT22;34713;50.038;20.000;2022-10-22T01:39:23;13.31;61.53
48898;DHT22;34713;50.038;20.000;2022-10-22T01:41:54;13.28;61.56
48898;DHT22;34713;50.038;20.000;2022-10-22T01:44:33;13.28;61.60
48898;DHT22;34713;50.038;20.000;2022-10-22T01:53:06;13.18;61.68
48898;DHT22;34713;50.038;20.000;2022-10-22T02:01:59;13.01;61.93
48898;DHT22;34713;50.038;20.000;2022-10-22T02:04:40;12.94;62.05
48898;DHT22;34713;50.038;20.000;2022-10-22T02:07:06;12.91;62.13
48898;DHT22;34713;50.038;20.000;2022-10-22T02:09:33;12.90;62.20
48898;DHT22;34713;50.038;20.000;2022-10-22T02:12:03;12.87;62.18
48898;DHT22;34713;50.038;20.000;2022-10-22T02:14:32;12.85;62.24
48898;DHT22;34713;50.038;20.000;2022-10-22T02:16:59;12.87;62.25
48898;DHT22;34713;50.038;20.000;2022-10-22T02:19:32;12.83;62.30
48898;DHT22;34713;50.038;20.000;2022-10-22T02:21:57;12.80;62.33
48898;DHT22;34713;50.038;20.000;2022-10-22T02:24:23;12.78;62.40
48898;DHT22;34713;50.038;20.000;2022-10-22T02:30:15;12.70;62.52
48898;DHT22;34713;50.038;20.000;2022-10-22T02:35:28;12.64;62.73
48898;DHT22;34713;50.038;20.000;2022-10-22T02:37:56;12.60;62.86
48898;DHT22;34713;50.038;20.000;2022-10-22T02:40:23;12.60;62.84
48898;DHT22;34713;50.038;20.000;2022-10-22T02:42:50;12.56;62.82
48898;DHT22;34713;50.038;20.000;2022-10-22T02:45:18;12.54;62.80
48898;DHT22;34713;50.038;20.000;2022-10-22T02:47:44;12.54;62.82
48898;DHT22;34713;50.038;20.000;2022-10-22T02:50:10;12.50;62.83
48898;DHT22;34713;50.038;20.000;2022-10-22T02:52:36;12.50;62.82
48898;DHT22;34713;50.038;20.000;2022-10-22T02:55:04;12.47;62.83
48898;DHT22;34713;50.038;20.000;2022-10-22T02:57:30;12.43;62.87
48898;DHT22;34713;50.038;20.000;2022-10-22T02:59:56;12.39;62.95
48898;DHT22;34713;50.038;20.000;2022-10-22T03:02:22;12.40;62.92
48898;DHT22;34713;50.038;20.000;2022-10-22T03:04:48;12.36;62.91
48898;DHT22;34713;50.038;20.000;2022-10-22T03:07:14;12.36;62.91
48898;DHT22;34713;50.038;20.000;2022-10-22T03:09:40;12.33;62.92
48898;DHT22;34713;50.038;20.000;2022-10-22T03:12:06;12.31;62.95
48898;DHT22;34713;50.038;20.000;2022-10-22T03:14:34;12.31;62.96
48898;DHT22;34713;50.038;20.000;2022-10-22T03:16:59;12.26;62.94
48898;DHT22;34713;50.038;20.000;2022-10-22T03:19:25;12.25;62.94
48898;DHT22;34713;50.038;20.000;2022-10-22T03:22:00;12.18;62.94
48898;DHT22;34713;50.038;20.000;2022-10-22T03:24:34;12.16;62.97
48898;DHT22;34713;50.038;20.000;2022-10-22T03:27:01;12.15;63.04
48898;DHT22;34713;50.038;20.000;2022-10-22T03:29:27;12.12;63.13
48898;DHT22;34713;50.038;20.000;2022-10-22T03:31:54;12.11;63.13
48898;DHT22;34713;50.038;20.000;2022-10-22T03:34:20;12.09;63.13
48898;DHT22;34713;50.038;20.000;2022-10-22T03:36:46;12.06;63.17
48898;DHT22;34713;50.038;20.000;2022-10-22T03:39:14;12.04;63.23
48898;DHT22;34713;50.038;20.000;2022-10-22T03:41:42;11.99;63.32
48898;DHT22;34713;50.038;20.000;2022-10-22T03:44:09;11.98;63.35
48898;DHT22;34713;50.038;20.000;2022-10-22T03:46:35;11.94;63.42
48898;DHT22;34713;50.038;20.000;2022-10-22T03:49:01;11.91;63.49
48898;DHT22;34713;50.038;20.000;2022-10-22T03:51:27;11.86;63.57
48898;DHT22;34713;50.038;20.000;2022-10-22T03:53:54;11.84;63.65
48898;DHT22;34713;50.038;20.000;2022-10-22T03:56:20;11.82;63.72
48898;DHT22;34713;50.038;20.000;2022-10-22T03:58:46;11.80;63.80
48898;DHT22;34713;50.038;20.000;2022-10-22T04:01:13;11.77;63.83
48898;DHT22;34713;50.038;20.000;2022-10-22T04:03:39;11.78;63.87
48898;DHT22;34713;50.038;20.000;2022-10-22T04:06:09;11.74;63.85
48898;DHT22;34713;50.038;20.000;2022-10-22T04:08:37;11.73;63.86
48898;DHT22;34713;50.038;20.000;2022-10-22T04:11:03;11.73;63.84
48898;DHT22;34713;50.038;20.000;2022-10-22T04:13:29;11.68;63.87
48898;DHT22;34713;50.038;20.000;2022-10-22T04:16:11;11.65;63.94
48898;DHT22;34713;50.038;20.000;2022-10-22T04:18:38;11.65;63.97
48898;DHT22;34713;50.038;20.000;2022-10-22T04:21:06;11.64;63.99
48898;DHT22;34713;50.038;20.000;2022-10-22T04:23:33;11.63;63.98
48898;DHT22;34713;50.038;20.000;2022-10-22T04:26:01;11.61;63.98
48898;DHT22;34713;50.038;20.000;2022-10-22T04:28:27;11.60;64.00
48898;DHT22;34713;50.038;20.000;2022-10-22T04:30:53;11.60;64.00
48898;DHT22;34713;50.038;20.000;2022-10-22T04:33:20;11.60;64.03
48898;DHT22;34713;50.038;20.000;2022-10-22T04:35:46;11.58;64.05
48898;DHT22;34713;50.038;20.000;2022-10-22T04:38:12;11.57;64.09
48898;DHT22;34713;50.038;20.000;2022-10-22T04:40:38;11.58;64.08
48898;DHT22;34713;50.038;20.000;2022-10-22T04:43:04;11.56;64.10
48898;DHT22;34713;50.038;20.000;2022-10-22T04:45:33;11.56;64.17
48898;DHT22;34713;50.038;20.000;2022-10-22T04:47:58;11.54;64.16
48898;DHT22;34713;50.038;20.000;2022-10-22T04:50:24;11.54;64.19
48898;DHT22;34713;50.038;20.000;2022-10-22T04:52:50;11.56;64.19
48898;DHT22;34713;50.038;20.000;2022-10-22T04:55:16;11.56;64.20
48898;DHT22;34713;50.038;20.000;2022-10-22T04:57:42;11.53;64.18
48898;DHT22;34713;50.038;20.000;2022-10-22T05:00:09;11.53;64.15
48898;DHT22;34713;50.038;20.000;2022-10-22T05:02:35;11.51;64.17
48898;DHT22;34713;50.038;20.000;2022-10-22T05:05:01;11.53;64.23
48898;DHT22;34713;50.038;20.000;2022-10-22T05:07:27;11.49;64.21
48898;DHT22;34713;50.038;20.000;2022-10-22T05:09:53;11.50;64.22
48898;DHT22;34713;50.038;20.000;2022-10-22T05:12:19;11.50;64.23
48898;DHT22;34713;50.038;20.000;2022-10-22T05:14:45;11.46;64.23
48898;DHT22;34713;50.038;20.000;2022-10-22T05:17:11;11.43;64.23
48898;DHT22;34713;50.038;20.000;2022-10-22T05:19:37;11.43;64.29
48898;DHT22;34713;50.038;20.000;2022-10-22T05:22:03;11.42;64.23
48898;DHT22;34713;50.038;20.000;2022-10-22T05:24:32;11.40;64.25
48898;DHT22;34713;50.038;20.000;2022-10-22T05:26:59;11.39;64.27
48898;DHT22;34713;50.038;20.000;2022-10-22T05:29:25;11.37;64.34
48898;DHT22;34713;50.038;20.000;2022-10-22T05:31:51;11.35;64.37
48898;DHT22;34713;50.038;20.000;2022-10-22T05:34:18;11.36;64.37
48898;DHT22;34713;50.038;20.000;2022-10-22T05:36:44;11.35;64.31
48898;DHT22;34713;50.038;20.000;2022-10-22T05:39:11;11.35;64.35
48898;DHT22;34713;50.038;20.000;2022-10-22T05:41:37;11.37;64.39
48898;DHT22;34713;50.038;20.000;2022-10-22T05:44:04;11.40;64.41
48898;DHT22;34713;50.038;20.000;2022-10-22T05:46:34;11.44;64.43
48898;DHT22;34713;50.038;20.000;2022-10-22T05:49:04;11.46;64.44
48898;DHT22;34713;50.038;20.000;2022-10-22T05:51:33;11.49;64.43
48898;DHT22;34713;50.038;20.000;2022-10-22T05:54:05;11.53;64.51
48898;DHT22;34713;50.038;20.000;2022-10-22T05:56:31;11.58;64.71
48898;DHT22;34713;50.038;20.000;2022-10-22T05:58:57;11.65;64.78
48898;DHT22;34713;50.038;20.000;2022-10-22T06:01:31;11.68;64.64
48898;DHT22;34713;50.038;20.000;2022-10-22T06:03:59;11.73;64.48
48898;DHT22;34713;50.038;20.000;2022-10-22T06:09:19;11.78;64.27
48898;DHT22;34713;50.038;20.000;2022-10-22T06:11:45;11.78;64.09
48898;DHT22;34713;50.038;20.000;2022-10-22T06:14:12;11.80;63.99
48898;DHT22;34713;50.038;20.000;2022-10-22T06:16:38;11.82;63.97
48898;DHT22;34713;50.038;20.000;2022-10-22T06:19:06;11.85;63.88
48898;DHT22;34713;50.038;20.000;2022-10-22T06:21:32;11.85;63.86
48898;DHT22;34713;50.038;20.000;2022-10-22T06:23:59;11.88;63.88
48898;DHT22;34713;50.038;20.000;2022-10-22T06:26:26;11.92;63.95
48898;DHT22;34713;50.038;20.000;2022-10-22T06:28:52;11.99;63.95
48898;DHT22;34713;50.038;20.000;2022-10-22T06:31:19;12.05;63.96
48898;DHT22;34713;50.038;20.000;2022-10-22T06:33:45;12.08;63.92
48898;DHT22;34713;50.038;20.000;2022-10-22T06:36:14;12.12;63.92
48898;DHT22;34713;50.038;20.000;2022-10-22T06:38:41;12.18;64.01
48898;DHT22;34713;50.038;20.000;2022-10-22T06:41:11;12.25;64.01
48898;DHT22;34713;50.038;20.000;2022-10-22T06:43:37;12.35;63.99
48898;DHT22;34713;50.038;20.000;2022-10-22T06:46:08;12.46;63.98
48898;DHT22;34713;50.038;20.000;2022-10-22T06:48:38;12.56;63.96
48898;DHT22;34713;50.038;20.000;2022-10-22T06:51:09;12.67;63.98
48898;DHT22;34713;50.038;20.000;2022-10-22T06:53:36;12.84;63.92
48898;DHT22;34713;50.038;20.000;2022-10-22T06:56:08;12.98;63.81
48898;DHT22;34713;50.038;20.000;2022-10-22T06:58:34;13.12;63.81
48898;DHT22;34713;50.038;20.000;2022-10-22T07:01:10;13.32;63.64
48898;DHT22;34713;50.038;20.000;2022-10-22T07:03:38;13.49;63.40
48898;DHT22;34713;50.038;20.000;2022-10-22T07:06:07;13.66;63.10
48898;DHT22;34713;50.038;20.000;2022-10-22T07:08:34;13.83;62.82
48898;DHT22;34713;50.038;20.000;2022-10-22T07:11:21;13.96;62.54
48898;DHT22;34713;50.038;20.000;2022-10-22T07:13:48;14.11;62.38
48898;DHT22;34713;50.038;20.000;2022-10-22T07:16:16;14.24;62.34
48898;DHT22;34713;50.038;20.000;2022-10-22T07:18:42;14.35;62.20
48898;DHT22;34713;50.038;20.000;2022-10-22T07:21:10;14.48;61.72
48898;DHT22;34713;50.038;20.000;2022-10-22T07:23:37;14.59;61.36
48898;DHT22;34713;50.038;20.000;2022-10-22T07:26:04;14.66;61.14
48898;DHT22;34713;50.038;20.000;2022-10-22T07:28:33;14.72;60.80
48898;DHT22;34713;50.038;20.000;2022-10-22T07:30:59;14.79;60.61
48898;DHT22;34713;50.038;20.000;2022-10-22T07:33:26;14.84;60.42
48898;DHT22;34713;50.038;20.000;2022-10-22T07:35:57;14.89;60.16
48898;DHT22;34713;50.038;20.000;2022-10-22T07:38:25;14.94;59.97
48898;DHT22;34713;50.038;20.000;2022-10-22T07:40:51;15.03;59.83
48898;DHT22;34713;50.038;20.000;2022-10-22T07:43:17;15.08;59.71
48898;DHT22;34713;50.038;20.000;2022-10-22T07:45:43;15.08;59.46
48898;DHT22;34713;50.038;20.000;2022-10-22T07:48:08;14.83;59.69
48898;DHT22;34713;50.038;20.000;2022-10-22T07:50:34;14.60;60.17
48898;DHT22;34713;50.038;20.000;2022-10-22T07:53:00;14.38;60.69
48898;DHT22;34713;50.038;20.000;2022-10-22T07:55:26;14.21;61.32
48898;DHT22;34713;50.038;20.000;2022-10-22T07:57:52;14.07;61.65
48898;DHT22;34713;50.038;20.000;2022-10-22T08:00:18;13.93;62.04
48898;DHT22;34713;50.038;20.000;2022-10-22T08:02:44;13.80;62.47
48898;DHT22;34713;50.038;20.000;2022-10-22T08:05:10;13.84;62.78
48898;DHT22;34713;50.038;20.000;2022-10-22T08:07:39;14.11;62.54
48898;DHT22;34713;50.038;20.000;2022-10-22T08:10:06;14.35;62.01
48898;DHT22;34713;50.038;20.000;2022-10-22T08:12:32;14.53;61.52
48898;DHT22;34713;50.038;20.000;2022-10-22T08:14:58;14.72;61.10
48898;DHT22;34713;50.038;20.000;2022-10-22T08:17:26;14.89;60.64
48898;DHT22;34713;50.038;20.000;2022-10-22T08:19:54;14.98;60.29
48898;DHT22;34713;50.038;20.000;2022-10-22T08:22:20;15.10;59.99
48898;DHT22;34713;50.038;20.000;2022-10-22T08:24:45;15.24;59.76
48898;DHT22;34713;50.038;20.000;2022-10-22T08:27:11;15.34;59.52
48898;DHT22;34713;50.038;20.000;2022-10-22T08:29:37;15.35;59.24
48898;DHT22;34713;50.038;20.000;2022-10-22T08:32:04;15.18;59.52
48898;DHT22;34713;50.038;20.000;2022-10-22T08:34:30;15.04;59.77
48898;DHT22;34713;50.038;20.000;2022-10-22T08:36:55;14.91;60.37
48898;DHT22;34713;50.038;20.000;2022-10-22T08:39:21;14.82;60.68
48898;DHT22;34713;50.038;20.000;2022-10-22T08:50:46;14.87;61.71
48898;DHT22;34713;50.038;20.000;2022-10-22T08:53:12;14.94;61.62
48898;DHT22;34713;50.038;20.000;2022-10-22T08:55:35;14.94;61.65
48898;DHT22;34713;50.038;20.000;2022-10-22T08:58:31;14.94;61.63
48898;DHT22;34713;50.038;20.000;2022-10-22T09:01:18;14.96;61.75
48898;DHT22;34713;50.038;20.000;2022-10-22T09:03:56;14.89;61.78
48898;DHT22;34713;50.038;20.000;2022-10-22T09:06:26;14.83;61.89
48898;DHT22;34713;50.038;20.000;2022-10-22T09:08:53;14.76;61.86
48898;DHT22;34713;50.038;20.000;2022-10-22T09:11:35;14.72;61.90
48898;DHT22;34713;50.038;20.000;2022-10-22T09:14:02;14.70;62.06
48898;DHT22;34713;50.038;20.000;2022-10-22T09:20:02;14.66;62.12
48898;DHT22;34713;50.038;20.000;2022-10-22T09:25:25;14.69;62.35
48898;DHT22;34713;50.038;20.000;2022-10-22T09:27:49;14.76;62.35
48898;DHT22;34713;50.038;20.000;2022-10-22T09:30:22;14.82;62.35
48898;DHT22;34713;50.038;20.000;2022-10-22T09:35:27;14.94;62.31
48898;DHT22;34713;50.038;20.000;2022-10-22T09:37:55;15.00;62.15
48898;DHT22;34713;50.038;20.000;2022-10-22T09:40:22;15.04;62.04
48898;DHT22;34713;50.038;20.000;2022-10-22T09:42:48;15.10;61.85
48898;DHT22;34713;50.038;20.000;2022-10-22T09:45:24;15.14;61.68
48898;DHT22;34713;50.038;20.000;2022-10-22T09:48:48;15.15;61.52
48898;DHT22;34713;50.038;20.000;2022-10-22T09:50:48;15.17;61.46
48898;DHT22;34713;50.038;20.000;2022-10-22T09:53:36;15.17;61.44
48898;DHT22;34713;50.038;20.000;2022-10-22T09:56:55;15.17;61.58
48898;DHT22;34713;50.038;20.000;2022-10-22T09:58:43;15.17;61.56
48898;DHT22;34713;50.038;20.000;2022-10-22T10:01:21;15.15;61.58
48898;DHT22;34713;50.038;20.000;2022-10-22T10:03:43;15.11;61.54
48898;DHT22;34713;50.038;20.000;2022-10-22T10:06:09;15.08;61.44
48898;DHT22;34713;50.038;20.000;2022-10-22T10:08:37;15.06;61.52
48898;DHT22;34713;50.038;20.000;2022-10-22T10:11:10;15.04;61.57
48898;DHT22;34713;50.038;20.000;2022-10-22T10:16:57;15.03;61.66
48898;DHT22;34713;50.038;20.000;2022-10-22T10:19:40;15.01;61.63
48898;DHT22;34713;50.038;20.000;2022-10-22T10:27:39;14.93;61.75
48898;DHT22;34713;50.038;20.000;2022-10-22T10:30:18;14.89;61.86
48898;DHT22;34713;50.038;20.000;2022-10-22T10:36:23;14.84;61.95
48898;DHT22;34713;50.038;20.000;2022-10-22T10:38:50;14.82;62.07
48898;DHT22;34713;50.038;20.000;2022-10-22T10:41:31;14.84;62.26
48898;DHT22;34713;50.038;20.000;2022-10-22T10:47:30;14.84;62.37
48898;DHT22;34713;50.038;20.000;2022-10-22T10:50:04;14.84;62.35
48898;DHT22;34713;50.038;20.000;2022-10-22T10:52:39;14.82;62.42
48898;DHT22;34713;50.038;20.000;2022-10-22T10:55:22;14.79;62.48
48898;DHT22;34713;50.038;20.000;2022-10-22T11:00:49;15.27;62.02
48898;DHT22;34713;50.038;20.000;2022-10-22T11:06:19;15.77;60.73
48898;DHT22;34713;50.038;20.000;2022-10-22T11:12:00;16.09;60.01
48898;DHT22;34713;50.038;20.000;2022-10-22T11:14:40;16.24;59.70
48898;DHT22;34713;50.038;20.000;2022-10-22T11:17:16;16.33;59.45
48898;DHT22;34713;50.038;20.000;2022-10-22T11:22:37;16.35;59.21
48898;DHT22;34713;50.038;20.000;2022-10-22T11:25:15;16.13;59.77
48898;DHT22;34713;50.038;20.000;2022-10-22T11:28:31;15.90;60.42
48898;DHT22;34713;50.038;20.000;2022-10-22T11:30:22;15.72;61.00
48898;DHT22;34713;50.038;20.000;2022-10-22T11:32:53;15.59;61.63
48898;DHT22;34713;50.038;20.000;2022-10-22T11:35:24;15.46;61.93
48898;DHT22;34713;50.038;20.000;2022-10-22T11:37:51;15.37;62.42
48898;DHT22;34713;50.038;20.000;2022-10-22T11:40:37;15.38;62.80
48898;DHT22;34713;50.038;20.000;2022-10-22T11:43:10;15.62;62.63
48898;DHT22;34713;50.038;20.000;2022-10-22T11:45:41;15.82;62.30
48898;DHT22;34713;50.038;20.000;2022-10-22T11:48:17;15.96;62.01
48898;DHT22;34713;50.038;20.000;2022-10-22T11:50:58;16.07;61.74
48898;DHT22;34713;50.038;20.000;2022-10-22T11:53:35;16.17;61.57
48898;DHT22;34713;50.038;20.000;2022-10-22T11:58:40;16.33;61.64
48898;DHT22;34713;50.038;20.000;2022-10-22T12:03:43;16.44;61.50
48898;DHT22;34713;50.038;20.000;2022-10-22T12:11:44;16.54;61.26
48898;DHT22;34713;50.038;20.000;2022-10-22T12:14:26;16.58;61.28
48898;DHT22;34713;50.038;20.000;2022-10-22T12:16:54;16.61;61.26
48898;DHT22;34713;50.038;20.000;2022-10-22T12:19:26;16.64;61.26
48898;DHT22;34713;50.038;20.000;2022-10-22T12:22:06;16.64;61.37
48898;DHT22;34713;50.038;20.000;2022-10-22T12:24:34;16.68;61.37
48898;DHT22;34713;50.038;20.000;2022-10-22T12:27:00;16.69;61.37
48898;DHT22;34713;50.038;20.000;2022-10-22T12:29:26;16.71;61.43
48898;DHT22;34713;50.038;20.000;2022-10-22T12:31:54;16.66;61.54
48898;DHT22;34713;50.038;20.000;2022-10-22T12:34:23;16.66;61.67
48898;DHT22;34713;50.038;20.000;2022-10-22T12:36:53;16.72;61.79
48898;DHT22;34713;50.038;20.000;2022-10-22T12:39:24;16.72;61.85
48898;DHT22;34713;50.038;20.000;2022-10-22T12:41:52;16.72;61.90
48898;DHT22;34713;50.038;20.000;2022-10-22T12:44:18;16.69;62.00
48898;DHT22;34713;50.038;20.000;2022-10-22T12:46:46;16.69;62.11
48898;DHT22;34713;50.038;20.000;2022-10-22T12:49:20;16.68;62.21
48898;DHT22;34713;50.038;20.000;2022-10-22T12:51:47;16.68;62.18
48898;DHT22;34713;50.038;20.000;2022-10-22T12:54:28;16.64;62.23
48898;DHT22;34713;50.038;20.000;2022-10-22T12:56:55;16.62;62.27
48898;DHT22;34713;50.038;20.000;2022-10-22T12:59:34;16.64;62.28
48898;DHT22;34713;50.038;20.000;2022-10-22T13:02:11;16.62;62.32
48898;DHT22;34713;50.038;20.000;2022-10-22T13:04:36;16.61;62.34
48898;DHT22;34713;50.038;20.000;2022-10-22T13:07:17;16.61;62.33
48898;DHT22;34713;50.038;20.000;2022-10-22T13:12:25;16.56;62.33
48898;DHT22;34713;50.038;20.000;2022-10-22T13:14:52;16.56;62.45
48898;DHT22;34713;50.038;20.000;2022-10-22T13:17:38;16.55;62.52
48898;DHT22;34713;50.038;20.000;2022-10-22T13:20:22;16.54;62.56
48898;DHT22;34713;50.038;20.000;2022-10-22T13:23:02;16.54;62.57
48898;DHT22;34713;50.038;20.000;2022-10-22T13:25:36;16.54;62.61
48898;DHT22;34713;50.038;20.000;2022-10-22T13:28:18;16.54;62.65
48898;DHT22;34713;50.038;20.000;2022-10-22T13:30:58;16.48;62.64
48898;DHT22;34713;50.038;20.000;2022-10-22T13:33:29;16.45;62.79
48898;DHT22;34713;50.038;20.000;2022-10-22T13:35:56;16.44;62.90
48898;DHT22;34713;50.038;20.000;2022-10-22T13:38:25;16.44;62.93
48898;DHT22;34713;50.038;20.000;2022-10-22T13:40:51;16.44;62.95
48898;DHT22;34713;50.038;20.000;2022-10-22T13:43:18;16.43;63.00
48898;DHT22;34713;50.038;20.000;2022-10-22T13:45:45;16.41;63.11
48898;DHT22;34713;50.038;20.000;2022-10-22T13:48:15;16.38;63.29
48898;DHT22;34713;50.038;20.000;2022-10-22T13:50:41;16.38;63.39
48898;DHT22;34713;50.038;20.000;2022-10-22T13:53:12;16.38;63.47
48898;DHT22;34713;50.038;20.000;2022-10-22T13:55:39;16.35;63.54
48898;DHT22;34713;50.038;20.000;2022-10-22T13:58:14;16.34;63.57
48898;DHT22;34713;50.038;20.000;2022-10-22T14:00:46;16.33;63.55
48898;DHT22;34713;50.038;20.000;2022-10-22T14:03:16;16.33;63.55
48898;DHT22;34713;50.038;20.000;2022-10-22T14:05:45;16.31;63.60
48898;DHT22;34713;50.038;20.000;2022-10-22T14:08:14;16.30;63.63
48898;DHT22;34713;50.038;20.000;2022-10-22T14:10:41;16.30;63.70
48898;DHT22;34713;50.038;20.000;2022-10-22T14:13:12;16.31;63.76
48898;DHT22;34713;50.038;20.000;2022-10-22T14:15:39;16.28;63.87
48898;DHT22;34713;50.038;20.000;2022-10-22T14:18:07;16.28;63.88
48898;DHT22;34713;50.038;20.000;2022-10-22T14:20:36;16.28;63.99
48898;DHT22;34713;50.038;20.000;2022-10-22T14:23:20;16.30;64.00
48898;DHT22;34713;50.038;20.000;2022-10-22T14:25:47;16.24;63.99
48898;DHT22;34713;50.038;20.000;2022-10-22T14:28:15;16.23;64.01
48898;DHT22;34713;50.038;20.000;2022-10-22T14:30:42;16.23;64.12
48898;DHT22;34713;50.038;20.000;2022-10-22T14:33:21;16.23;64.20
48898;DHT22;34713;50.038;20.000;2022-10-22T14:35:48;16.20;64.27
48898;DHT22;34713;50.038;20.000;2022-10-22T14:38:15;16.17;64.35
48898;DHT22;34713;50.038;20.000;2022-10-22T14:40:41;16.17;64.43
48898;DHT22;34713;50.038;20.000;2022-10-22T14:43:19;16.16;64.52
48898;DHT22;34713;50.038;20.000;2022-10-22T14:45:45;16.14;64.62
48898;DHT22;34713;50.038;20.000;2022-10-22T14:48:11;16.13;64.73
48898;DHT22;34713;50.038;20.000;2022-10-22T14:50:37;16.13;64.79
48898;DHT22;34713;50.038;20.000;2022-10-22T14:53:03;16.12;64.78
48898;DHT22;34713;50.038;20.000;2022-10-22T14:55:29;16.10;64.91
48898;DHT22;34713;50.038;20.000;2022-10-22T14:57:54;16.10;64.98
48898;DHT22;34713;50.038;20.000;2022-10-22T15:00:21;16.10;65.07
48898;DHT22;34713;50.038;20.000;2022-10-22T15:02:47;16.07;65.15
48898;DHT22;34713;50.038;20.000;2022-10-22T15:05:14;16.04;65.20
48898;DHT22;34713;50.038;20.000;2022-10-22T15:07:43;16.04;65.26
48898;DHT22;34713;50.038;20.000;2022-10-22T15:10:09;16.03;65.36
48898;DHT22;34713;50.038;20.000;2022-10-22T15:12:35;16.01;65.41
48898;DHT22;34713;50.038;20.000;2022-10-22T15:15:01;15.97;65.49
48898;DHT22;34713;50.038;20.000;2022-10-22T15:17:27;15.96;65.64
48898;DHT22;34713;50.038;20.000;2022-10-22T15:19:53;15.92;65.73
48898;DHT22;34713;50.038;20.000;2022-10-22T15:22:21;15.92;65.84
48898;DHT22;34713;50.038;20.000;2022-10-22T15:24:47;15.86;65.95
48898;DHT22;34713;50.038;20.000;2022-10-22T15:27:14;15.87;66.02
48898;DHT22;34713;50.038;20.000;2022-10-22T15:29:41;15.83;66.13
48898;DHT22;34713;50.038;20.000;2022-10-22T15:32:07;15.82;66.18
48898;DHT22;34713;50.038;20.000;2022-10-22T15:34:38;15.82;66.25
48898;DHT22;34713;50.038;20.000;2022-10-22T15:37:08;15.77;66.40
48898;DHT22;34713;50.038;20.000;2022-10-22T15:39:39;15.77;66.45
48898;DHT22;34713;50.038;20.000;2022-10-22T15:42:05;15.75;66.51
48898;DHT22;34713;50.038;20.000;2022-10-22T15:44:31;15.73;66.60
48898;DHT22;34713;50.038;20.000;2022-10-22T15:46:57;15.72;66.70
48898;DHT22;34713;50.038;20.000;2022-10-22T15:49:26;15.72;66.82
48898;DHT22;34713;50.038;20.000;2022-10-22T15:51:52;15.69;66.87
48898;DHT22;34713;50.038;20.000;2022-10-22T15:54:23;15.66;66.93
48898;DHT22;34713;50.038;20.000;2022-10-22T15:56:49;15.68;66.97
48898;DHT22;34713;50.038;20.000;2022-10-22T15:59:16;15.65;67.03
48898;DHT22;34713;50.038;20.000;2022-10-22T16:01:42;15.64;67.11
48898;DHT22;34713;50.038;20.000;2022-10-22T16:04:09;15.62;67.16
48898;DHT22;34713;50.038;20.000;2022-10-22T16:06:43;15.61;67.25
48898;DHT22;34713;50.038;20.000;2022-10-22T16:09:17;15.58;67.28
48898;DHT22;34713;50.038;20.000;2022-10-22T16:11:44;15.56;67.37
48898;DHT22;34713;50.038;20.000;2022-10-22T16:14:12;15.51;67.48
48898;DHT22;34713;50.038;20.000;2022-10-22T16:16:45;15.49;67.59
48898;DHT22;34713;50.038;20.000;2022-10-22T16:19:13;15.49;67.66
48898;DHT22;34713;50.038;20.000;2022-10-22T16:21:40;15.48;67.77
48898;DHT22;34713;50.038;20.000;2022-10-22T16:24:07;15.48;67.82
48898;DHT22;34713;50.038;20.000;2022-10-22T16:26:34;15.49;67.89
48898;DHT22;34713;50.038;20.000;2022-10-22T16:29:00;15.46;67.95
48898;DHT22;34713;50.038;20.000;2022-10-22T16:31:26;15.48;68.04
48898;DHT22;34713;50.038;20.000;2022-10-22T16:33:52;15.46;68.15
48898;DHT22;34713;50.038;20.000;2022-10-22T16:36:20;15.48;68.17
48898;DHT22;34713;50.038;20.000;2022-10-22T16:38:47;15.42;68.23
48898;DHT22;34713;50.038;20.000;2022-10-22T16:41:20;15.44;68.24
48898;DHT22;34713;50.038;20.000;2022-10-22T16:43:49;15.44;68.32
48898;DHT22;34713;50.038;20.000;2022-10-22T16:46:18;15.44;68.44
48898;DHT22;34713;50.038;20.000;2022-10-22T16:48:51;15.42;68.46
48898;DHT22;34713;50.038;20.000;2022-10-22T16:51:21;15.42;68.50
48898;DHT22;34713;50.038;20.000;2022-10-22T16:53:47;15.41;68.53